Time;durP1;ratioP1;P1;durP2;ratioP2;P2;SDS_P1;SDS_P2;PMS_P1;PMS_P2;Temp;Humidity;BMP_temperature;BMP_pressure;BME280_temperature;BME280_humidity;BME280_pressure;Samples;Min_cycle;Max_cycle;Signal;HPM_P1;HPM_P2
2021/09/30 02:19:55;;;;;;;7.67;4.10;;;;;;;;;;5043496;28;20253;-82
2021/09/30 03:00:45;;;;;;;6.80;3.97;;;;;;;;;;5029748;28;20200;-82
2021/09/30 03:03:14;;;;;;;6.43;3.50;;;;;;;;;;5036114;28;20716;-81
2021/09/30 03:05:41;;;;;;;10.47;3.87;;;;;;;;;;5034321;28;20208;-81
2021/09/30 03:08:08;;;;;;;5.97;3.90;;;;;;;;;;5030762;28;20220;-81
2021/09/30 03:10:36;;;;;;;7.00;4.27;;;;;;;;;;5035623;28;20230;-82
2021/09/30 03:19:19;;;;;;;6.50;3.60;;;;;;;;;;5037237;28;20228;-81
2021/09/30 03:25:26;;;;;;;8.30;4.30;;;;;;;;;;5025553;28;20671;-82
2021/09/30 03:27:54;;;;;;;10.67;4.97;;;;;;;;;;5018970;28;20675;-82
2021/09/30 03:30:22;;;;;;;12.07;5.40;;;;;;;;;;5025404;28;20657;-82
2021/09/30 03:32:49;;;;;;;12.83;5.07;;;;;;;;;;5024449;28;20200;-82
2021/09/30 03:35:18;;;;;;;7.43;4.50;;;;;;;;;;5027867;28;20629;-82
2021/09/30 03:37:45;;;;;;;12.80;4.97;;;;;;;;;;5027116;28;20583;-81
2021/09/30 03:40:13;;;;;;;9.07;4.27;;;;;;;;;;5025466;28;20649;-81
2021/09/30 03:42:40;;;;;;;7.40;4.50;;;;;;;;;;5027664;28;20211;-82
2021/09/30 03:45:08;;;;;;;10.67;4.50;;;;;;;;;;5026028;28;20265;-81
2021/09/30 03:47:36;;;;;;;9.53;4.83;;;;;;;;;;5029555;28;20672;-81
2021/09/30 03:50:03;;;;;;;10.17;4.90;;;;;;;;;;5031922;28;20232;-82
2021/09/30 03:52:42;;;;;;;15.37;5.10;;;;;;;;;;5034631;28;20637;-83
2021/09/30 03:55:25;;;;;;;10.67;4.47;;;;;;;;;;5036488;28;20215;-82
2021/09/30 04:00:36;;;;;;;11.33;4.50;;;;;;;;;;5036808;28;20195;-83
2021/09/30 04:03:04;;;;;;;10.57;4.80;;;;;;;;;;5042415;28;20208;-81
2021/09/30 04:05:31;;;;;;;11.17;4.70;;;;;;;;;;5045796;28;20199;-81
2021/09/30 04:11:21;;;;;;;10.40;4.90;;;;;;;;;;5038884;28;20197;-83
2021/09/30 04:13:50;;;;;;;11.00;4.73;;;;;;;;;;5033654;28;20211;-81
2021/09/30 04:16:17;;;;;;;8.30;4.33;;;;;;;;;;5035910;28;20295;-83
2021/09/30 04:18:44;;;;;;;10.97;5.00;;;;;;;;;;5035989;28;20251;-82
2021/09/30 04:21:11;;;;;;;9.37;4.80;;;;;;;;;;5032613;28;20234;-82
2021/09/30 04:23:38;;;;;;;9.77;4.50;;;;;;;;;;5036462;28;20212;-84
2021/09/30 04:26:06;;;;;;;7.27;4.37;;;;;;;;;;5034378;28;20208;-83
2021/09/30 04:31:55;;;;;;;9.83;4.97;;;;;;;;;;5032102;28;20265;-84
2021/09/30 04:35:03;;;;;;;11.97;4.70;;;;;;;;;;5037182;28;20234;-82
2021/09/30 04:40:47;;;;;;;9.07;4.40;;;;;;;;;;4907702;28;3736168;-84
2021/09/30 04:46:26;;;;;;;6.93;4.37;;;;;;;;;;5034363;28;20195;-84
2021/09/30 04:58:10;;;;;;;7.67;4.33;;;;;;;;;;5032625;28;20240;-82
2021/09/30 05:03:54;;;;;;;7.43;4.27;;;;;;;;;;4954055;28;20265;-83
2021/09/30 05:12:15;;;;;;;10.27;4.27;;;;;;;;;;5030217;28;20207;-84
2021/09/30 05:14:45;;;;;;;7.57;3.77;;;;;;;;;;5037348;28;20215;-82
2021/09/30 05:29:56;;;;;;;8.90;4.87;;;;;;;;;;4967044;28;20204;-83
2021/09/30 06:01:07;;;;;;;12.40;4.17;;;;;;;;;;4877036;29;20687;-83
2021/09/30 06:12:28;;;;;;;7.07;4.40;;;;;;;;;;5036028;28;20243;-84
2021/09/30 06:14:55;;;;;;;10.83;5.20;;;;;;;;;;5038691;28;20274;-81
2021/09/30 06:23:42;;;;;;;7.93;4.37;;;;;;;;;;5012113;28;20237;-82
2021/09/30 10:05:03;;;;;;;3.13;0.87;;;;;;;;;;5045353;23;20199;31
2021/09/30 10:07:33;;;;;;;6.73;1.13;;;;;;;;;;4994487;28;20568;-77
2021/09/30 10:10:00;;;;;;;4.60;1.00;;;;;;;;;;5007334;28;20766;-76
2021/09/30 10:12:28;;;;;;;4.83;0.90;;;;;;;;;;5014920;28;20733;-76
2021/09/30 10:14:55;;;;;;;5.27;1.00;;;;;;;;;;5013402;28;20232;-76
2021/09/30 10:17:28;;;;;;;3.00;0.70;;;;;;;;;;5014356;28;20283;-77
2021/09/30 10:19:56;;;;;;;3.67;0.90;;;;;;;;;;5088671;23;20631;-77
2021/09/30 10:22:23;;;;;;;3.50;0.90;;;;;;;;;;5046667;28;20294;-76
2021/09/30 10:24:53;;;;;;;4.33;0.80;;;;;;;;;;5051242;28;20243;-76
2021/09/30 10:27:21;;;;;;;5.47;0.63;;;;;;;;;;5048164;28;20581;-77
2021/09/30 10:29:49;;;;;;;6.77;0.93;;;;;;;;;;5045958;28;20352;-76
2021/09/30 10:32:17;;;;;;;4.07;0.90;;;;;;;;;;5045577;28;20318;-76
2021/09/30 10:34:45;;;;;;;8.93;1.30;;;;;;;;;;5047642;28;20218;-75
2021/09/30 10:37:20;;;;;;;5.03;0.80;;;;;;;;;;5045046;28;20226;-75
2021/09/30 10:39:48;;;;;;;3.10;0.70;;;;;;;;;;5046066;28;20325;-75
2021/09/30 10:42:30;;;;;;;6.93;0.87;;;;;;;;;;5042011;28;20681;-76
2021/09/30 10:45:10;;;;;;;2.43;0.73;;;;;;;;;;5045689;28;20207;-75
2021/09/30 10:47:38;;;;;;;5.83;0.50;;;;;;;;;;5048361;28;20752;-76
2021/09/30 10:50:05;;;;;;;4.73;0.80;;;;;;;;;;5046184;28;20382;-76
2021/09/30 10:52:35;;;;;;;5.77;0.97;;;;;;;;;;5047058;28;20211;-76
2021/09/30 10:55:23;;;;;;;4.73;0.73;;;;;;;;;;5043391;28;20202;-76
2021/09/30 10:57:52;;;;;;;3.33;0.70;;;;;;;;;;5042533;28;20284;-76
2021/09/30 11:00:38;;;;;;;4.13;0.70;;;;;;;;;;5045228;28;20351;-76
2021/09/30 11:03:21;;;;;;;5.37;0.70;;;;;;;;;;5045805;28;20732;-75
2021/09/30 11:06:03;;;;;;;3.60;0.90;;;;;;;;;;5043975;28;20206;-76
2021/09/30 11:08:33;;;;;;;4.93;0.60;;;;;;;;;;5044435;28;20298;-77
2021/09/30 11:11:11;;;;;;;2.73;0.70;;;;;;;;;;5042710;28;20238;-77
2021/09/30 11:13:40;;;;;;;4.43;0.90;;;;;;;;;;5045610;28;20206;-76
2021/09/30 11:16:09;;;;;;;2.60;0.67;;;;;;;;;;5045274;28;20230;-77
2021/09/30 11:18:40;;;;;;;3.53;0.80;;;;;;;;;;5039170;28;20207;-77
2021/09/30 11:21:22;;;;;;;1.73;0.57;;;;;;;;;;5039687;28;20241;-79
2021/09/30 11:23:51;;;;;;;1.30;0.50;;;;;;;;;;5047653;28;20737;-79
2021/09/30 11:26:18;;;;;;;3.30;0.70;;;;;;;;;;5044697;28;20211;-78
2021/09/30 11:28:47;;;;;;;2.83;0.60;;;;;;;;;;5039738;28;20278;-78
2021/09/30 11:31:23;;;;;;;2.97;0.47;;;;;;;;;;5035517;28;20205;-78
2021/09/30 11:33:51;;;;;;;4.37;0.50;;;;;;;;;;5037663;28;20293;-78
2021/09/30 11:36:18;;;;;;;3.63;0.80;;;;;;;;;;5042454;28;20234;-78
2021/09/30 11:38:46;;;;;;;3.70;0.50;;;;;;;;;;5041241;28;20310;-77
2021/09/30 11:41:14;;;;;;;4.20;0.70;;;;;;;;;;5041319;28;20245;-79
2021/09/30 11:43:41;;;;;;;3.97;0.63;;;;;;;;;;5036881;28;20210;-78
2021/09/30 11:46:33;;;;;;;2.80;0.50;;;;;;;;;;5044454;28;20302;-78
2021/09/30 11:49:02;;;;;;;3.07;0.63;;;;;;;;;;5026592;28;20213;-78
2021/09/30 11:51:30;;;;;;;2.77;0.60;;;;;;;;;;5042795;28;20290;-78
2021/09/30 11:53:57;;;;;;;2.33;0.50;;;;;;;;;;5046893;28;20280;-78
2021/09/30 11:56:25;;;;;;;2.20;0.60;;;;;;;;;;5044722;28;20287;-78
2021/09/30 11:58:59;;;;;;;6.60;0.70;;;;;;;;;;5039582;28;20285;-76
2021/09/30 12:01:33;;;;;;;2.60;0.67;;;;;;;;;;5042855;28;20244;-79
2021/09/30 12:04:02;;;;;;;5.13;0.90;;;;;;;;;;5041719;28;20661;-78
2021/09/30 12:06:40;;;;;;;3.60;0.73;;;;;;;;;;5044722;28;20707;-78
2021/09/30 12:09:07;;;;;;;2.40;0.70;;;;;;;;;;5042147;28;20262;-80
2021/09/30 12:11:35;;;;;;;1.93;0.50;;;;;;;;;;5046141;28;20216;-77
2021/09/30 12:14:03;;;;;;;3.87;0.60;;;;;;;;;;5043642;28;20199;-78
2021/09/30 12:16:30;;;;;;;5.27;0.90;;;;;;;;;;5043195;28;20216;-78
2021/09/30 12:19:01;;;;;;;11.57;0.80;;;;;;;;;;5042111;28;20249;-78
2021/09/30 12:21:39;;;;;;;3.83;0.60;;;;;;;;;;5041233;28;20298;-79
2021/09/30 12:24:06;;;;;;;4.80;1.17;;;;;;;;;;5044978;28;20207;-79
2021/09/30 12:26:34;;;;;;;2.87;0.43;;;;;;;;;;5041583;28;20298;-79
2021/09/30 12:29:01;;;;;;;2.10;0.50;;;;;;;;;;5039744;28;20265;-76
2021/09/30 12:31:30;;;;;;;12.47;4.50;;;;;;;;;;5042221;28;20331;-80
2021/09/30 12:33:57;;;;;;;1.80;0.50;;;;;;;;;;5041903;28;20213;-77
2021/09/30 12:36:24;;;;;;;4.10;0.63;;;;;;;;;;5042285;28;20295;-78
2021/09/30 12:39:00;;;;;;;2.10;0.50;;;;;;;;;;5042472;28;20235;-78
2021/09/30 12:41:27;;;;;;;4.97;0.90;;;;;;;;;;5042840;28;20373;-77
2021/09/30 12:43:55;;;;;;;3.53;0.70;;;;;;;;;;5043148;28;20669;-79
2021/09/30 12:46:22;;;;;;;1.53;0.63;;;;;;;;;;5045103;28;20241;-77
2021/09/30 12:48:49;;;;;;;4.63;0.50;;;;;;;;;;5042751;28;20238;-79
2021/09/30 12:51:18;;;;;;;2.00;0.70;;;;;;;;;;5042580;28;20696;-79
2021/09/30 12:53:46;;;;;;;4.40;0.70;;;;;;;;;;5042476;28;20293;-78
2021/09/30 12:56:16;;;;;;;1.60;0.43;;;;;;;;;;5043457;28;20242;-78
2021/09/30 12:58:45;;;;;;;2.10;0.60;;;;;;;;;;5039479;28;20309;-78
2021/09/30 13:01:25;;;;;;;5.33;0.60;;;;;;;;;;5043171;28;20541;-79
2021/09/30 13:04:09;;;;;;;0.73;0.40;;;;;;;;;;5041787;28;20206;-77
2021/09/30 13:06:36;;;;;;;4.30;0.60;;;;;;;;;;5043385;28;20211;-81
2021/09/30 13:09:04;;;;;;;2.20;0.50;;;;;;;;;;5043969;28;20306;-78
2021/09/30 13:11:34;;;;;;;5.70;0.60;;;;;;;;;;5041486;28;20207;-79
2021/09/30 13:14:18;;;;;;;2.53;0.80;;;;;;;;;;5045363;28;20235;-79
2021/09/30 13:16:47;;;;;;;2.87;0.63;;;;;;;;;;5040419;28;20728;-79
2021/09/30 13:19:14;;;;;;;2.57;0.60;;;;;;;;;;5047719;28;20235;-79
2021/09/30 13:21:58;;;;;;;5.70;0.80;;;;;;;;;;5039418;28;20302;-79
2021/09/30 13:24:25;;;;;;;1.53;0.40;;;;;;;;;;5042740;28;20282;-79
2021/09/30 13:26:54;;;;;;;3.87;0.70;;;;;;;;;;5042702;28;20294;-79
2021/09/30 13:29:21;;;;;;;1.93;0.50;;;;;;;;;;5044196;28;20269;-79
2021/09/30 13:31:48;;;;;;;4.97;0.57;;;;;;;;;;5041352;28;20235;-78
2021/09/30 13:34:16;;;;;;;2.03;0.50;;;;;;;;;;5044236;28;20720;-79
2021/09/30 13:36:43;;;;;;;1.23;0.53;;;;;;;;;;5041822;28;20289;-79
2021/09/30 13:39:10;;;;;;;2.13;0.50;;;;;;;;;;5123508;23;20322;-78
2021/09/30 13:41:37;;;;;;;4.37;1.03;;;;;;;;;;5029164;28;20740;-77
2021/09/30 13:44:06;;;;;;;4.20;0.70;;;;;;;;;;5030345;28;20223;-78
2021/09/30 13:46:33;;;;;;;3.83;0.90;;;;;;;;;;5024606;28;20338;-79
2021/09/30 13:49:01;;;;;;;5.13;0.97;;;;;;;;;;5028813;28;20729;-77
2021/09/30 13:51:29;;;;;;;1.30;0.50;;;;;;;;;;5036101;28;20211;-78
2021/09/30 13:53:56;;;;;;;4.17;0.90;;;;;;;;;;5033234;28;20298;-77
2021/09/30 13:56:24;;;;;;;2.77;0.70;;;;;;;;;;5035088;28;20204;-79
2021/09/30 13:58:51;;;;;;;5.77;0.70;;;;;;;;;;5031213;28;20725;-78
2021/09/30 14:01:20;;;;;;;3.93;0.60;;;;;;;;;;5037580;28;20250;-77
2021/09/30 14:03:48;;;;;;;4.47;1.10;;;;;;;;;;5035185;28;20681;-77
2021/09/30 14:06:17;;;;;;;3.23;0.60;;;;;;;;;;5032360;28;20645;-79
2021/09/30 14:08:44;;;;;;;4.70;0.80;;;;;;;;;;5041000;28;20294;-76
2021/09/30 14:11:12;;;;;;;4.27;0.97;;;;;;;;;;5045964;28;20697;-76
2021/09/30 14:13:40;;;;;;;3.20;0.67;;;;;;;;;;5038023;28;20275;-77
2021/09/30 14:16:07;;;;;;;4.43;0.80;;;;;;;;;;5032354;28;20716;-81
2021/09/30 14:18:36;;;;;;;4.17;0.80;;;;;;;;;;5030889;28;20231;-80
2021/09/30 14:21:03;;;;;;;4.13;1.30;;;;;;;;;;5034531;28;20263;-77
2021/09/30 14:23:30;;;;;;;4.57;0.80;;;;;;;;;;5034845;28;20621;-76
2021/09/30 14:25:58;;;;;;;1.30;0.77;;;;;;;;;;5031517;28;20239;-83
2021/09/30 14:28:26;;;;;;;4.07;1.27;;;;;;;;;;5033350;28;20207;-78
2021/09/30 14:30:56;;;;;;;4.87;0.70;;;;;;;;;;5035551;28;20256;-78
2021/09/30 14:33:23;;;;;;;1.60;0.60;;;;;;;;;;5033575;28;20204;-78
2021/09/30 14:35:52;;;;;;;5.00;0.80;;;;;;;;;;5030165;28;20873;-78
2021/09/30 14:38:19;;;;;;;4.40;1.00;;;;;;;;;;5031622;28;20318;-78
2021/09/30 14:40:50;;;;;;;2.50;1.00;;;;;;;;;;5033366;28;20228;-78
2021/09/30 14:43:17;;;;;;;5.13;0.90;;;;;;;;;;5021806;28;20212;-79
2021/09/30 14:45:44;;;;;;;4.03;1.20;;;;;;;;;;5026382;28;20212;-82
2021/09/30 14:48:12;;;;;;;1.90;0.90;;;;;;;;;;5025046;28;20203;-78
2021/09/30 14:50:39;;;;;;;5.93;1.00;;;;;;;;;;5024324;28;20227;-78
2021/09/30 14:53:08;;;;;;;7.70;0.90;;;;;;;;;;5021266;28;20230;-78
2021/09/30 14:55:35;;;;;;;6.40;0.73;;;;;;;;;;5024343;28;20275;-78
2021/09/30 14:58:03;;;;;;;3.87;1.00;;;;;;;;;;5018684;28;20756;-77
2021/09/30 15:00:30;;;;;;;6.70;0.90;;;;;;;;;;5023245;28;20271;-77
2021/09/30 15:02:57;;;;;;;5.13;0.90;;;;;;;;;;5027634;28;20764;-78
2021/09/30 15:05:24;;;;;;;5.33;1.00;;;;;;;;;;5030215;28;20238;-78
2021/09/30 15:07:51;;;;;;;3.53;0.80;;;;;;;;;;5031644;28;20234;-78
2021/09/30 15:10:20;;;;;;;3.03;0.70;;;;;;;;;;5029310;28;20287;-78
2021/09/30 15:12:47;;;;;;;4.07;1.00;;;;;;;;;;5029078;28;20287;-78
2021/09/30 15:15:14;;;;;;;4.00;1.00;;;;;;;;;;5032781;28;20223;-79
2021/09/30 15:17:56;;;;;;;6.43;1.43;;;;;;;;;;5040361;28;20266;-77
2021/09/30 15:23:10;;;;;;;2.27;0.90;;;;;;;;;;5028502;28;20195;-78
2021/09/30 15:25:40;;;;;;;4.80;0.80;;;;;;;;;;5031608;28;20246;-76
2021/09/30 15:28:08;;;;;;;2.30;0.70;;;;;;;;;;5031466;28;20286;-75
2021/09/30 15:30:36;;;;;;;2.40;0.80;;;;;;;;;;5024101;28;20246;-77
2021/09/30 15:33:03;;;;;;;3.07;0.70;;;;;;;;;;5008002;28;20670;-77
2021/09/30 15:35:31;;;;;;;4.50;1.00;;;;;;;;;;5020342;28;20212;-80
2021/09/30 15:38:00;;;;;;;2.43;0.77;;;;;;;;;;5021452;28;20227;-77
2021/09/30 15:40:27;;;;;;;3.70;0.90;;;;;;;;;;5019346;28;20362;-77
2021/09/30 15:42:56;;;;;;;6.07;0.93;;;;;;;;;;5021523;28;20208;-77
2021/09/30 15:45:23;;;;;;;5.90;1.13;;;;;;;;;;5011172;28;20199;-77
2021/09/30 15:47:50;;;;;;;6.07;1.10;;;;;;;;;;5016568;28;20575;-78
2021/09/30 15:50:17;;;;;;;3.90;0.80;;;;;;;;;;5021559;28;20310;-81
2021/09/30 15:52:45;;;;;;;4.20;0.80;;;;;;;;;;5025267;28;20208;-79
2021/09/30 15:55:12;;;;;;;6.90;0.90;;;;;;;;;;5019494;28;20205;-85
2021/09/30 15:57:39;;;;;;;6.50;1.67;;;;;;;;;;5019143;28;20276;-80
2021/09/30 16:00:09;;;;;;;5.77;1.33;;;;;;;;;;5019648;28;20262;-78
2021/09/30 16:02:36;;;;;;;3.13;1.03;;;;;;;;;;5005318;28;20208;-79
2021/09/30 16:05:04;;;;;;;5.07;1.27;;;;;;;;;;5020303;28;20302;-80
2021/09/30 16:07:31;;;;;;;5.77;0.90;;;;;;;;;;5031910;28;20273;-80
2021/09/30 16:09:58;;;;;;;8.60;1.07;;;;;;;;;;5017758;28;20319;-77
2021/09/30 16:12:25;;;;;;;2.20;0.80;;;;;;;;;;5012702;28;20627;-80
2021/09/30 16:14:53;;;;;;;3.13;1.27;;;;;;;;;;5023250;28;20249;-79
2021/09/30 16:17:21;;;;;;;3.07;1.00;;;;;;;;;;5015523;28;20232;-80
2021/09/30 16:19:51;;;;;;;5.17;0.80;;;;;;;;;;5023605;28;20559;-80
2021/09/30 16:22:19;;;;;;;7.77;1.23;;;;;;;;;;5027975;28;20211;-80
2021/09/30 16:24:46;;;;;;;2.23;0.67;;;;;;;;;;5029276;28;21351;-82
2021/09/30 16:27:13;;;;;;;5.33;1.00;;;;;;;;;;5032396;28;20239;-80
2021/09/30 16:29:41;;;;;;;4.27;0.70;;;;;;;;;;5025425;28;20909;-79
2021/09/30 16:32:09;;;;;;;4.17;0.70;;;;;;;;;;5021127;28;20223;-79
2021/09/30 16:34:39;;;;;;;0.97;0.50;;;;;;;;;;5018011;28;20751;-78
2021/09/30 16:37:06;;;;;;;5.47;0.67;;;;;;;;;;5017977;28;20206;-77
2021/09/30 16:39:33;;;;;;;7.50;1.10;;;;;;;;;;5018811;28;20473;-79
2021/09/30 16:42:01;;;;;;;3.53;0.97;;;;;;;;;;5004928;28;20212;-78
2021/09/30 16:44:28;;;;;;;4.07;0.60;;;;;;;;;;5009778;28;20295;-79
2021/09/30 16:46:56;;;;;;;4.60;0.87;;;;;;;;;;5012040;28;20891;-78
2021/09/30 16:49:23;;;;;;;4.80;0.70;;;;;;;;;;5010684;28;20295;-79
2021/09/30 16:51:53;;;;;;;3.43;0.90;;;;;;;;;;5014181;28;20266;-79
2021/09/30 16:54:21;;;;;;;9.83;1.67;;;;;;;;;;5022804;28;20315;-79
2021/09/30 16:56:48;;;;;;;4.43;0.90;;;;;;;;;;5010480;28;20291;-80
2021/09/30 16:59:15;;;;;;;4.37;1.17;;;;;;;;;;5020829;28;20306;-79
2021/09/30 17:01:43;;;;;;;6.07;1.10;;;;;;;;;;5017037;28;20758;-78
2021/09/30 17:04:10;;;;;;;3.80;0.90;;;;;;;;;;5018199;28;20220;-78
2021/09/30 17:06:38;;;;;;;1.13;0.90;;;;;;;;;;5015923;28;20212;-77
2021/09/30 17:09:07;;;;;;;4.03;1.00;;;;;;;;;;5017909;28;20215;-81
2021/09/30 17:11:35;;;;;;;4.17;1.03;;;;;;;;;;5008481;28;20409;-79
2021/09/30 17:14:02;;;;;;;6.03;0.90;;;;;;;;;;5016008;28;20677;-79
2021/09/30 17:16:30;;;;;;;5.57;1.00;;;;;;;;;;5023802;28;20233;-78
2021/09/30 17:18:57;;;;;;;4.73;1.20;;;;;;;;;;5009341;28;20311;-78
2021/09/30 17:21:24;;;;;;;3.97;1.07;;;;;;;;;;5007067;28;20236;-78
2021/09/30 17:23:52;;;;;;;3.03;1.30;;;;;;;;;;5015534;28;20208;-77
2021/09/30 17:26:20;;;;;;;6.10;1.40;;;;;;;;;;5013632;28;20209;-78
2021/09/30 17:28:48;;;;;;;5.13;1.20;;;;;;;;;;5015122;28;20772;-77
2021/09/30 17:31:15;;;;;;;9.03;2.57;;;;;;;;;;5013711;28;20212;-77
2021/09/30 17:33:44;;;;;;;7.53;1.50;;;;;;;;;;5040493;28;20199;-77
2021/09/30 17:36:11;;;;;;;6.90;1.43;;;;;;;;;;5032615;28;20208;-77
2021/09/30 17:38:39;;;;;;;9.70;1.57;;;;;;;;;;5015769;28;20318;-78
2021/09/30 17:41:06;;;;;;;5.23;1.33;;;;;;;;;;5021501;28;20237;-77
2021/09/30 17:43:35;;;;;;;3.97;1.37;;;;;;;;;;5019448;28;20287;-77
2021/09/30 17:46:02;;;;;;;4.50;1.40;;;;;;;;;;5024035;28;20300;-77
2021/09/30 17:48:29;;;;;;;5.90;1.07;;;;;;;;;;5010460;28;20259;-78
2021/09/30 17:50:57;;;;;;;4.87;1.40;;;;;;;;;;5020187;28;20287;-77
2021/09/30 17:53:24;;;;;;;5.40;1.20;;;;;;;;;;5012446;28;20310;-77
2021/09/30 17:55:52;;;;;;;5.33;1.20;;;;;;;;;;5015339;28;20211;-78
2021/09/30 17:58:19;;;;;;;4.93;1.43;;;;;;;;;;5020665;28;20197;-77
2021/09/30 18:00:48;;;;;;;5.73;1.70;;;;;;;;;;5021630;28;20232;-77
2021/09/30 18:03:16;;;;;;;8.33;1.77;;;;;;;;;;5018018;28;20242;-77
2021/09/30 18:05:43;;;;;;;3.43;0.90;;;;;;;;;;5023692;28;20215;-77
2021/09/30 18:08:10;;;;;;;3.87;1.33;;;;;;;;;;5022171;28;20295;-78
2021/09/30 18:10:37;;;;;;;7.80;1.53;;;;;;;;;;5026688;28;20904;-78
2021/09/30 18:13:08;;;;;;;7.43;1.50;;;;;;;;;;5028910;28;20242;-78
2021/09/30 18:15:35;;;;;;;4.07;1.40;;;;;;;;;;5029330;28;21104;-77
2021/09/30 18:18:04;;;;;;;4.67;1.20;;;;;;;;;;5027835;28;20230;-77
2021/09/30 18:20:37;;;;;;;5.83;1.63;;;;;;;;;;5022107;28;20255;-78
2021/09/30 18:23:04;;;;;;;7.00;1.60;;;;;;;;;;5021564;28;20223;-77
2021/09/30 18:25:31;;;;;;;4.50;1.40;;;;;;;;;;5024594;28;20223;-77
2021/09/30 18:31:02;;;;;;;5.53;1.50;;;;;;;;;;5022136;28;20238;-77
2021/09/30 18:33:31;;;;;;;4.60;1.30;;;;;;;;;;5024849;28;20296;-78
2021/09/30 18:35:58;;;;;;;4.83;1.20;;;;;;;;;;5022206;28;20279;-77
2021/09/30 18:38:25;;;;;;;5.33;1.50;;;;;;;;;;5023269;28;20281;-77
2021/09/30 18:40:53;;;;;;;7.50;1.27;;;;;;;;;;5026321;28;20252;-77
2021/09/30 18:43:27;;;;;;;5.53;1.60;;;;;;;;;;5041766;28;20218;-77
2021/09/30 18:45:54;;;;;;;5.63;1.30;;;;;;;;;;5037158;28;20204;-77
2021/09/30 18:48:21;;;;;;;4.13;1.80;;;;;;;;;;5026949;28;20296;-77
2021/09/30 18:50:50;;;;;;;7.57;2.17;;;;;;;;;;5024221;28;20780;-78
2021/09/30 18:53:17;;;;;;;6.07;1.90;;;;;;;;;;5027162;28;20273;-78
2021/09/30 18:55:44;;;;;;;5.50;1.67;;;;;;;;;;5028605;28;20235;-77
2021/09/30 18:58:12;;;;;;;5.57;1.33;;;;;;;;;;5021970;28;20253;-78
2021/09/30 19:00:39;;;;;;;4.93;1.57;;;;;;;;;;5019629;28;20323;-77
2021/09/30 19:03:06;;;;;;;5.70;1.60;;;;;;;;;;5019820;28;20203;-77
2021/09/30 19:05:34;;;;;;;3.17;1.50;;;;;;;;;;5020543;28;20343;-78
2021/09/30 19:08:04;;;;;;;4.20;1.67;;;;;;;;;;5017805;28;20207;-78
2021/09/30 19:10:32;;;;;;;2.33;1.27;;;;;;;;;;5021156;28;20795;-77
2021/09/30 19:12:59;;;;;;;6.10;1.80;;;;;;;;;;5020839;28;20289;-77
2021/09/30 19:15:27;;;;;;;5.07;2.07;;;;;;;;;;5020912;28;20227;-77
2021/09/30 19:17:54;;;;;;;5.90;2.10;;;;;;;;;;5024493;28;20228;-77
2021/09/30 19:20:22;;;;;;;7.00;1.87;;;;;;;;;;5026399;28;20228;-77
2021/09/30 19:22:55;;;;;;;9.20;2.53;;;;;;;;;;5017982;28;20246;-77
2021/09/30 19:25:23;;;;;;;13.17;3.60;;;;;;;;;;5024595;28;20262;-77
2021/09/30 19:27:50;;;;;;;8.70;3.73;;;;;;;;;;5020539;28;20257;-76
2021/09/30 19:30:19;;;;;;;8.47;3.17;;;;;;;;;;5022818;28;20872;-77
2021/09/30 19:32:47;;;;;;;7.47;3.03;;;;;;;;;;5023984;28;20215;-77
2021/09/30 19:35:14;;;;;;;6.50;2.03;;;;;;;;;;5023851;28;20231;-78
2021/09/30 19:37:41;;;;;;;7.03;1.90;;;;;;;;;;5025027;28;20261;-76
2021/09/30 19:40:13;;;;;;;7.27;2.37;;;;;;;;;;5011977;28;20357;-78
2021/09/30 19:42:42;;;;;;;5.93;2.27;;;;;;;;;;5021695;28;20212;-79
2021/09/30 19:45:09;;;;;;;7.87;2.70;;;;;;;;;;5015710;28;20212;-79
2021/09/30 19:47:36;;;;;;;8.33;3.20;;;;;;;;;;5023945;28;20299;-78
2021/09/30 19:50:04;;;;;;;3.77;2.30;;;;;;;;;;5022456;28;20335;-79
2021/09/30 19:52:31;;;;;;;6.63;2.67;;;;;;;;;;5011625;28;20212;-77
2021/09/30 19:54:58;;;;;;;10.70;2.70;;;;;;;;;;5028910;28;20196;-77
2021/09/30 19:57:25;;;;;;;7.37;2.80;;;;;;;;;;5032211;28;20254;-77
2021/09/30 19:59:54;;;;;;;3.80;1.90;;;;;;;;;;5036038;28;20357;-77
2021/09/30 20:02:21;;;;;;;5.70;2.00;;;;;;;;;;5027578;28;20230;-76
2021/09/30 20:04:48;;;;;;;8.07;1.77;;;;;;;;;;5011460;28;20211;-76
2021/09/30 20:07:16;;;;;;;3.13;1.80;;;;;;;;;;5014624;28;20214;-77
2021/09/30 20:09:43;;;;;;;4.60;1.80;;;;;;;;;;5017964;28;20307;-77
2021/09/30 20:12:12;;;;;;;6.37;2.57;;;;;;;;;;5015380;28;20283;-77
2021/09/30 20:14:39;;;;;;;6.00;2.47;;;;;;;;;;5021087;28;20207;-77
2021/09/30 20:17:08;;;;;;;7.27;2.20;;;;;;;;;;5001945;28;20315;-77
2021/09/30 20:22:19;;;;;;;5.80;2.10;;;;;;;;;;5003550;28;20207;-75
2021/09/30 20:24:46;;;;;;;3.87;2.03;;;;;;;;;;5020481;28;20209;-76
2021/09/30 20:27:13;;;;;;;7.77;2.50;;;;;;;;;;5014878;28;20275;-76
2021/09/30 20:29:41;;;;;;;6.57;2.30;;;;;;;;;;5015752;28;20354;-76
2021/09/30 20:32:10;;;;;;;6.10;2.10;;;;;;;;;;5014662;28;20299;-75
2021/09/30 20:34:37;;;;;;;6.83;2.07;;;;;;;;;;5023794;28;20287;-75
2021/09/30 20:37:05;;;;;;;6.43;1.93;;;;;;;;;;5016597;28;20199;-76
2021/09/30 20:39:35;;;;;;;7.03;1.90;;;;;;;;;;5022699;28;20232;-76
2021/09/30 20:42:03;;;;;;;5.70;2.27;;;;;;;;;;5012317;28;20230;-75
2021/09/30 20:44:30;;;;;;;4.33;2.00;;;;;;;;;;5012233;28;20409;-77
2021/09/30 20:46:57;;;;;;;8.03;2.13;;;;;;;;;;5014621;28;20290;-79
2021/09/30 20:49:26;;;;;;;6.80;2.03;;;;;;;;;;5013935;28;20216;-77
2021/09/30 20:51:53;;;;;;;10.23;2.20;;;;;;;;;;5011945;28;20200;-79
2021/09/30 20:54:20;;;;;;;4.50;2.10;;;;;;;;;;5012800;28;20286;-77
2021/09/30 20:56:48;;;;;;;5.03;2.00;;;;;;;;;;5012583;28;20211;-79
2021/09/30 20:59:15;;;;;;;5.23;2.10;;;;;;;;;;5019996;28;20306;-80
2021/09/30 21:01:43;;;;;;;3.23;1.97;;;;;;;;;;5021443;28;20210;-78
2021/09/30 21:04:10;;;;;;;4.43;2.10;;;;;;;;;;5017420;28;20342;-77
2021/09/30 21:06:38;;;;;;;6.20;2.10;;;;;;;;;;5015667;28;20228;-77
2021/09/30 21:09:06;;;;;;;3.53;2.00;;;;;;;;;;5021303;28;20657;-79
2021/09/30 21:11:33;;;;;;;5.70;2.20;;;;;;;;;;5022217;28;20203;-78
2021/09/30 21:14:00;;;;;;;4.83;2.10;;;;;;;;;;5016146;28;20302;-78
2021/09/30 21:16:27;;;;;;;8.13;2.03;;;;;;;;;;5019095;28;20230;-79
2021/09/30 21:18:55;;;;;;;5.73;2.20;;;;;;;;;;5018455;28;20200;-78
2021/09/30 21:21:24;;;;;;;4.77;2.40;;;;;;;;;;5018131;28;20233;-78
2021/09/30 21:24:14;;;;;;;5.03;2.60;;;;;;;;;;5016845;28;20203;-78
2021/09/30 21:26:41;;;;;;;6.10;2.40;;;;;;;;;;5019449;28;20214;-78
2021/09/30 21:29:08;;;;;;;9.90;2.80;;;;;;;;;;5020618;28;20322;-78
2021/09/30 21:31:35;;;;;;;7.63;2.53;;;;;;;;;;5019991;28;20339;-78
2021/09/30 21:34:03;;;;;;;11.83;3.23;;;;;;;;;;5019741;28;20246;-78
2021/09/30 21:36:30;;;;;;;7.87;2.90;;;;;;;;;;5011532;28;20203;-79
2021/09/30 21:38:58;;;;;;;8.30;3.17;;;;;;;;;;5013584;28;20303;-78
2021/09/30 21:41:26;;;;;;;5.87;2.87;;;;;;;;;;5013899;28;20220;-77
2021/09/30 21:43:53;;;;;;;6.23;2.50;;;;;;;;;;5008978;28;20314;-76
2021/09/30 21:46:20;;;;;;;7.37;2.27;;;;;;;;;;5017367;28;20312;-77
2021/09/30 21:48:48;;;;;;;4.67;2.03;;;;;;;;;;5011560;28;20390;-76
2021/09/30 21:51:15;;;;;;;9.27;3.13;;;;;;;;;;5020170;28;20207;-76
2021/09/30 21:53:42;;;;;;;7.73;2.23;;;;;;;;;;5014564;28;20698;-77
2021/09/30 21:56:10;;;;;;;6.20;2.43;;;;;;;;;;5018211;28;20689;-78
2021/09/30 21:58:38;;;;;;;7.07;2.60;;;;;;;;;;5026643;28;20293;-79
2021/09/30 22:01:05;;;;;;;7.50;2.63;;;;;;;;;;5015273;28;20235;-78
2021/09/30 22:03:32;;;;;;;3.97;2.30;;;;;;;;;;5010091;28;20214;-78
2021/09/30 22:06:01;;;;;;;4.90;2.03;;;;;;;;;;5012814;28;20294;-78
2021/09/30 22:08:29;;;;;;;3.97;2.53;;;;;;;;;;5009173;28;20215;-80
2021/09/30 22:10:56;;;;;;;12.87;3.70;;;;;;;;;;5015846;28;20318;-78
2021/09/30 22:13:24;;;;;;;8.60;2.93;;;;;;;;;;5013592;28;20204;-77
2021/09/30 22:15:52;;;;;;;9.90;3.10;;;;;;;;;;5015459;28;20607;-77
2021/09/30 22:18:19;;;;;;;13.13;4.40;;;;;;;;;;5013972;28;20548;-76
2021/09/30 22:20:47;;;;;;;17.23;4.40;;;;;;;;;;5014025;28;20235;-77
2021/09/30 22:23:15;;;;;;;7.53;3.23;;;;;;;;;;5015206;28;20626;-77
2021/09/30 22:25:42;;;;;;;7.97;3.20;;;;;;;;;;5014851;28;20208;-77
2021/09/30 22:28:10;;;;;;;14.23;3.93;;;;;;;;;;5013772;28;20221;-78
2021/09/30 22:30:41;;;;;;;6.37;2.87;;;;;;;;;;5016551;28;20298;-77
2021/09/30 22:33:08;;;;;;;11.10;4.00;;;;;;;;;;5012951;28;20203;-78
2021/09/30 22:35:35;;;;;;;12.53;3.90;;;;;;;;;;5015531;28;21031;-77
2021/09/30 22:38:02;;;;;;;8.90;3.20;;;;;;;;;;5012434;28;20215;-77
2021/09/30 22:40:30;;;;;;;7.60;2.67;;;;;;;;;;5011711;28;20795;-76
2021/09/30 22:42:57;;;;;;;8.23;3.00;;;;;;;;;;5013662;28;20660;-77
2021/09/30 22:45:24;;;;;;;12.43;3.10;;;;;;;;;;5023402;28;20195;-77
2021/09/30 22:47:53;;;;;;;6.13;3.33;;;;;;;;;;5026899;28;20299;-76
2021/09/30 22:50:20;;;;;;;7.43;3.40;;;;;;;;;;5028032;28;20306;-77
2021/09/30 22:52:49;;;;;;;7.57;2.87;;;;;;;;;;5023265;28;20678;-76
2021/09/30 22:55:16;;;;;;;14.27;4.03;;;;;;;;;;5023428;28;20204;-76
2021/09/30 22:57:43;;;;;;;8.40;2.87;;;;;;;;;;5015500;28;20200;-77
2021/09/30 23:00:12;;;;;;;8.83;3.10;;;;;;;;;;5016683;28;20231;-77
2021/09/30 23:02:41;;;;;;;9.10;2.80;;;;;;;;;;5027673;28;20203;-77
2021/09/30 23:05:10;;;;;;;12.27;3.20;;;;;;;;;;5021451;28;20215;-75
2021/09/30 23:07:38;;;;;;;5.00;2.30;;;;;;;;;;5026570;28;20286;-75
2021/09/30 23:10:06;;;;;;;8.57;2.70;;;;;;;;;;5017928;28;20307;-76
2021/09/30 23:12:33;;;;;;;7.27;3.10;;;;;;;;;;5013905;28;20204;-75
2021/09/30 23:15:00;;;;;;;8.00;3.30;;;;;;;;;;5013103;28;21362;-75